sensor_id;sensor_type;location;lat;lon;timestamp;P1;durP1;ratioP1;P2;durP2;ratioP2
21611;SDS011;47005;52.292;13.452;2023-11-21T00:00:00;4.37;;;2.30;;
21611;SDS011;47005;52.292;13.452;2023-11-21T00:02:26;4.37;;;2.00;;
21611;SDS011;47005;52.292;13.452;2023-11-21T00:04:52;4.97;;;1.97;;
21611;SDS011;47005;52.292;13.452;2023-11-21T00:07:17;4.43;;;2.50;;
21611;SDS011;47005;52.292;13.452;2023-11-21T00:09:43;6.70;;;2.80;;
21611;SDS011;47005;52.292;13.452;2023-11-21T00:12:09;3.60;;;2.17;;
21611;SDS011;47005;52.292;13.452;2023-11-21T00:14:37;7.97;;;2.70;;
21611;SDS011;47005;52.292;13.452;2023-11-21T00:17:03;5.73;;;2.40;;
21611;SDS011;47005;52.292;13.452;2023-11-21T00:19:30;4.70;;;2.37;;
21611;SDS011;47005;52.292;13.452;2023-11-21T00:21:56;5.27;;;3.13;;
21611;SDS011;47005;52.292;13.452;2023-11-21T00:24:23;4.90;;;2.40;;
21611;SDS011;47005;52.292;13.452;2023-11-21T00:26:49;4.63;;;2.40;;
21611;SDS011;47005;52.292;13.452;2023-11-21T00:29:16;5.13;;;2.17;;
21611;SDS011;47005;52.292;13.452;2023-11-21T00:31:42;5.30;;;2.67;;
21611;SDS011;47005;52.292;13.452;2023-11-21T00:34:09;5.13;;;2.90;;
21611;SDS011;47005;52.292;13.452;2023-11-21T00:36:34;6.13;;;2.77;;
21611;SDS011;47005;52.292;13.452;2023-11-21T00:39:00;6.33;;;2.77;;
21611;SDS011;47005;52.292;13.452;2023-11-21T00:41:27;4.47;;;2.13;;
21611;SDS011;47005;52.292;13.452;2023-11-21T00:43:53;3.87;;;2.27;;
21611;SDS011;47005;52.292;13.452;2023-11-21T00:46:20;5.23;;;2.23;;
21611;SDS011;47005;52.292;13.452;2023-11-21T00:48:46;6.07;;;2.40;;
21611;SDS011;47005;52.292;13.452;2023-11-21T00:51:11;2.73;;;1.67;;
21611;SDS011;47005;52.292;13.452;2023-11-21T00:53:37;5.00;;;2.70;;
21611;SDS011;47005;52.292;13.452;2023-11-21T00:56:03;6.10;;;2.80;;
21611;SDS011;47005;52.292;13.452;2023-11-21T00:58:29;4.83;;;2.40;;
21611;SDS011;47005;52.292;13.452;2023-11-21T01:00:55;4.87;;;2.40;;
21611;SDS011;47005;52.292;13.452;2023-11-21T01:03:21;3.87;;;2.17;;
21611;SDS011;47005;52.292;13.452;2023-11-21T01:05:46;4.27;;;2.30;;
21611;SDS011;47005;52.292;13.452;2023-11-21T01:08:15;3.27;;;1.97;;
21611;SDS011;47005;52.292;13.452;2023-11-21T01:10:41;5.60;;;2.43;;
21611;SDS011;47005;52.292;13.452;2023-11-21T01:13:06;7.40;;;2.40;;
21611;SDS011;47005;52.292;13.452;2023-11-21T01:15:32;4.47;;;2.10;;
21611;SDS011;47005;52.292;13.452;2023-11-21T01:17:58;3.93;;;2.10;;
21611;SDS011;47005;52.292;13.452;2023-11-21T01:20:24;6.60;;;2.70;;
21611;SDS011;47005;52.292;13.452;2023-11-21T01:22:49;6.60;;;3.40;;
21611;SDS011;47005;52.292;13.452;2023-11-21T01:25:15;5.20;;;3.57;;
21611;SDS011;47005;52.292;13.452;2023-11-21T01:27:41;7.43;;;4.83;;
21611;SDS011;47005;52.292;13.452;2023-11-21T01:30:08;6.40;;;4.27;;
21611;SDS011;47005;52.292;13.452;2023-11-21T01:32:35;10.40;;;6.30;;
21611;SDS011;47005;52.292;13.452;2023-11-21T01:35:01;8.00;;;5.53;;
21611;SDS011;47005;52.292;13.452;2023-11-21T01:37:30;9.67;;;6.13;;
21611;SDS011;47005;52.292;13.452;2023-11-21T01:39:56;12.40;;;6.73;;
21611;SDS011;47005;52.292;13.452;2023-11-21T01:42:22;9.13;;;6.10;;
21611;SDS011;47005;52.292;13.452;2023-11-21T01:44:47;10.43;;;7.07;;
21611;SDS011;47005;52.292;13.452;2023-11-21T01:47:14;12.53;;;7.47;;
21611;SDS011;47005;52.292;13.452;2023-11-21T01:49:40;11.77;;;7.73;;
21611;SDS011;47005;52.292;13.452;2023-11-21T01:52:10;14.37;;;8.77;;
21611;SDS011;47005;52.292;13.452;2023-11-21T01:54:36;11.53;;;8.13;;
21611;SDS011;47005;52.292;13.452;2023-11-21T01:57:03;14.23;;;9.03;;
21611;SDS011;47005;52.292;13.452;2023-11-21T01:59:34;14.50;;;9.03;;
21611;SDS011;47005;52.292;13.452;2023-11-21T02:02:02;16.20;;;10.03;;
21611;SDS011;47005;52.292;13.452;2023-11-21T02:04:30;18.70;;;10.40;;
21611;SDS011;47005;52.292;13.452;2023-11-21T02:06:56;19.47;;;10.63;;
21611;SDS011;47005;52.292;13.452;2023-11-21T02:09:26;20.73;;;11.57;;
21611;SDS011;47005;52.292;13.452;2023-11-21T02:11:52;23.37;;;12.63;;
21611;SDS011;47005;52.292;13.452;2023-11-21T02:14:19;16.07;;;10.60;;
21611;SDS011;47005;52.292;13.452;2023-11-21T02:16:50;19.17;;;12.00;;
21611;SDS011;47005;52.292;13.452;2023-11-21T02:19:20;25.13;;;12.57;;
21611;SDS011;47005;52.292;13.452;2023-11-21T02:21:49;19.40;;;11.83;;
21611;SDS011;47005;52.292;13.452;2023-11-21T02:24:17;21.07;;;11.07;;
21611;SDS011;47005;52.292;13.452;2023-11-21T02:26:46;18.40;;;11.37;;
21611;SDS011;47005;52.292;13.452;2023-11-21T02:29:13;18.10;;;11.20;;
21611;SDS011;47005;52.292;13.452;2023-11-21T02:31:41;17.80;;;10.37;;
21611;SDS011;47005;52.292;13.452;2023-11-21T02:34:13;23.00;;;11.50;;
21611;SDS011;47005;52.292;13.452;2023-11-21T02:36:39;21.70;;;11.40;;
21611;SDS011;47005;52.292;13.452;2023-11-21T02:39:05;18.80;;;11.33;;
21611;SDS011;47005;52.292;13.452;2023-11-21T02:41:33;16.07;;;10.97;;
21611;SDS011;47005;52.292;13.452;2023-11-21T02:43:59;25.73;;;13.70;;
21611;SDS011;47005;52.292;13.452;2023-11-21T02:46:25;30.23;;;13.43;;
21611;SDS011;47005;52.292;13.452;2023-11-21T02:48:51;29.33;;;14.53;;
21611;SDS011;47005;52.292;13.452;2023-11-21T02:51:19;26.70;;;15.90;;
21611;SDS011;47005;52.292;13.452;2023-11-21T02:53:45;31.27;;;14.37;;
21611;SDS011;47005;52.292;13.452;2023-11-21T02:56:11;33.73;;;15.33;;
21611;SDS011;47005;52.292;13.452;2023-11-21T02:58:37;27.63;;;14.30;;
21611;SDS011;47005;52.292;13.452;2023-11-21T03:01:06;30.97;;;14.63;;
21611;SDS011;47005;52.292;13.452;2023-11-21T03:03:33;21.90;;;12.03;;
21611;SDS011;47005;52.292;13.452;2023-11-21T03:05:58;25.50;;;14.00;;
21611;SDS011;47005;52.292;13.452;2023-11-21T03:08:24;31.27;;;14.53;;
21611;SDS011;47005;52.292;13.452;2023-11-21T03:10:50;20.20;;;12.40;;
21611;SDS011;47005;52.292;13.452;2023-11-21T03:13:15;21.13;;;10.70;;
21611;SDS011;47005;52.292;13.452;2023-11-21T03:15:41;28.17;;;12.77;;
21611;SDS011;47005;52.292;13.452;2023-11-21T03:18:07;26.00;;;12.07;;
21611;SDS011;47005;52.292;13.452;2023-11-21T03:20:33;19.27;;;9.77;;
21611;SDS011;47005;52.292;13.452;2023-11-21T03:23:00;22.67;;;11.33;;
21611;SDS011;47005;52.292;13.452;2023-11-21T03:25:25;22.97;;;10.93;;
21611;SDS011;47005;52.292;13.452;2023-11-21T03:27:51;21.00;;;9.50;;
21611;SDS011;47005;52.292;13.452;2023-11-21T03:30:18;17.83;;;10.37;;
21611;SDS011;47005;52.292;13.452;2023-11-21T03:32:43;19.43;;;10.27;;
21611;SDS011;47005;52.292;13.452;2023-11-21T03:35:09;16.87;;;9.43;;
21611;SDS011;47005;52.292;13.452;2023-11-21T03:37:35;21.07;;;9.40;;
21611;SDS011;47005;52.292;13.452;2023-11-21T03:40:03;19.23;;;9.80;;
21611;SDS011;47005;52.292;13.452;2023-11-21T03:42:29;19.57;;;9.70;;
21611;SDS011;47005;52.292;13.452;2023-11-21T03:44:54;34.83;;;17.17;;
21611;SDS011;47005;52.292;13.452;2023-11-21T03:47:20;24.30;;;15.63;;
21611;SDS011;47005;52.292;13.452;2023-11-21T03:49:46;20.67;;;12.40;;
21611;SDS011;47005;52.292;13.452;2023-11-21T03:52:12;20.33;;;8.90;;
21611;SDS011;47005;52.292;13.452;2023-11-21T03:54:37;18.97;;;9.57;;
21611;SDS011;47005;52.292;13.452;2023-11-21T03:57:03;17.77;;;10.20;;
21611;SDS011;47005;52.292;13.452;2023-11-21T03:59:29;15.80;;;8.70;;
21611;SDS011;47005;52.292;13.452;2023-11-21T04:01:55;14.70;;;8.53;;
21611;SDS011;47005;52.292;13.452;2023-11-21T04:04:22;16.27;;;9.30;;
21611;SDS011;47005;52.292;13.452;2023-11-21T04:06:47;14.03;;;8.27;;
21611;SDS011;47005;52.292;13.452;2023-11-21T04:09:13;14.50;;;9.37;;
21611;SDS011;47005;52.292;13.452;2023-11-21T04:11:39;21.07;;;9.30;;
21611;SDS011;47005;52.292;13.452;2023-11-21T04:14:04;19.47;;;10.20;;
21611;SDS011;47005;52.292;13.452;2023-11-21T04:16:30;22.97;;;9.50;;
21611;SDS011;47005;52.292;13.452;2023-11-21T04:18:55;14.97;;;8.53;;
21611;SDS011;47005;52.292;13.452;2023-11-21T04:21:22;13.77;;;8.37;;
21611;SDS011;47005;52.292;13.452;2023-11-21T04:23:49;13.87;;;8.37;;
21611;SDS011;47005;52.292;13.452;2023-11-21T04:26:14;14.67;;;8.57;;
21611;SDS011;47005;52.292;13.452;2023-11-21T04:28:40;13.13;;;9.03;;
21611;SDS011;47005;52.292;13.452;2023-11-21T04:31:05;11.73;;;8.30;;
21611;SDS011;47005;52.292;13.452;2023-11-21T04:33:32;14.27;;;9.27;;
21611;SDS011;47005;52.292;13.452;2023-11-21T04:35:58;12.10;;;8.00;;
21611;SDS011;47005;52.292;13.452;2023-11-21T04:38:23;13.30;;;8.03;;
21611;SDS011;47005;52.292;13.452;2023-11-21T04:40:49;14.07;;;7.67;;
21611;SDS011;47005;52.292;13.452;2023-11-21T04:43:14;11.90;;;8.07;;
21611;SDS011;47005;52.292;13.452;2023-11-21T04:45:40;10.50;;;7.23;;
21611;SDS011;47005;52.292;13.452;2023-11-21T04:48:06;14.07;;;8.97;;
21611;SDS011;47005;52.292;13.452;2023-11-21T04:50:33;12.40;;;7.40;;
21611;SDS011;47005;52.292;13.452;2023-11-21T04:52:59;13.23;;;7.80;;
21611;SDS011;47005;52.292;13.452;2023-11-21T04:55:25;10.60;;;7.97;;
21611;SDS011;47005;52.292;13.452;2023-11-21T04:57:54;12.73;;;8.50;;
21611;SDS011;47005;52.292;13.452;2023-11-21T05:00:19;14.17;;;7.70;;
21611;SDS011;47005;52.292;13.452;2023-11-21T05:02:46;11.83;;;8.57;;
21611;SDS011;47005;52.292;13.452;2023-11-21T05:05:12;10.20;;;6.97;;
21611;SDS011;47005;52.292;13.452;2023-11-21T05:07:39;12.87;;;9.00;;
21611;SDS011;47005;52.292;13.452;2023-11-21T05:10:06;11.63;;;8.13;;
21611;SDS011;47005;52.292;13.452;2023-11-21T05:12:35;15.80;;;9.27;;
21611;SDS011;47005;52.292;13.452;2023-11-21T05:15:04;12.03;;;8.10;;
21611;SDS011;47005;52.292;13.452;2023-11-21T05:17:39;9.00;;;6.83;;
21611;SDS011;47005;52.292;13.452;2023-11-21T05:20:14;9.20;;;6.33;;
21611;SDS011;47005;52.292;13.452;2023-11-21T05:22:46;12.53;;;6.77;;
21611;SDS011;47005;52.292;13.452;2023-11-21T05:25:13;9.10;;;5.83;;
21611;SDS011;47005;52.292;13.452;2023-11-21T05:27:39;9.13;;;5.47;;
21611;SDS011;47005;52.292;13.452;2023-11-21T05:30:05;7.87;;;4.83;;
21611;SDS011;47005;52.292;13.452;2023-11-21T05:32:34;11.03;;;5.13;;
21611;SDS011;47005;52.292;13.452;2023-11-21T05:35:00;8.73;;;5.07;;
21611;SDS011;47005;52.292;13.452;2023-11-21T05:37:26;8.23;;;5.17;;
21611;SDS011;47005;52.292;13.452;2023-11-21T05:39:55;8.37;;;5.27;;
21611;SDS011;47005;52.292;13.452;2023-11-21T05:42:21;8.00;;;5.33;;
21611;SDS011;47005;52.292;13.452;2023-11-21T05:44:48;7.53;;;4.97;;
21611;SDS011;47005;52.292;13.452;2023-11-21T05:47:14;9.17;;;4.50;;
21611;SDS011;47005;52.292;13.452;2023-11-21T05:49:40;10.10;;;5.97;;
21611;SDS011;47005;52.292;13.452;2023-11-21T05:52:05;8.40;;;5.73;;
21611;SDS011;47005;52.292;13.452;2023-11-21T05:54:31;8.23;;;5.47;;
21611;SDS011;47005;52.292;13.452;2023-11-21T05:56:57;9.43;;;5.80;;
21611;SDS011;47005;52.292;13.452;2023-11-21T05:59:23;9.13;;;5.23;;
21611;SDS011;47005;52.292;13.452;2023-11-21T06:01:49;8.20;;;5.50;;
21611;SDS011;47005;52.292;13.452;2023-11-21T06:04:14;9.77;;;6.00;;
21611;SDS011;47005;52.292;13.452;2023-11-21T06:06:40;7.53;;;5.63;;
21611;SDS011;47005;52.292;13.452;2023-11-21T06:09:05;10.07;;;5.40;;
21611;SDS011;47005;52.292;13.452;2023-11-21T06:11:34;9.90;;;5.90;;
21611;SDS011;47005;52.292;13.452;2023-11-21T06:13:59;11.07;;;6.37;;
21611;SDS011;47005;52.292;13.452;2023-11-21T06:16:25;9.47;;;5.80;;
21611;SDS011;47005;52.292;13.452;2023-11-21T06:18:51;11.70;;;6.60;;
21611;SDS011;47005;52.292;13.452;2023-11-21T06:21:16;10.63;;;5.73;;
21611;SDS011;47005;52.292;13.452;2023-11-21T06:23:43;10.33;;;6.00;;
21611;SDS011;47005;52.292;13.452;2023-11-21T06:26:09;8.97;;;5.57;;
21611;SDS011;47005;52.292;13.452;2023-11-21T06:28:34;9.43;;;5.37;;
21611;SDS011;47005;52.292;13.452;2023-11-21T06:31:01;10.13;;;6.30;;
21611;SDS011;47005;52.292;13.452;2023-11-21T06:33:30;8.90;;;5.17;;
21611;SDS011;47005;52.292;13.452;2023-11-21T06:35:56;9.40;;;5.97;;
21611;SDS011;47005;52.292;13.452;2023-11-21T06:38:22;8.53;;;4.40;;
21611;SDS011;47005;52.292;13.452;2023-11-21T06:40:48;10.37;;;5.90;;
21611;SDS011;47005;52.292;13.452;2023-11-21T06:43:13;8.53;;;5.50;;
21611;SDS011;47005;52.292;13.452;2023-11-21T06:45:40;8.37;;;6.63;;
21611;SDS011;47005;52.292;13.452;2023-11-21T06:48:06;8.60;;;5.53;;
21611;SDS011;47005;52.292;13.452;2023-11-21T06:50:32;8.93;;;5.53;;
21611;SDS011;47005;52.292;13.452;2023-11-21T06:52:57;12.20;;;6.17;;
21611;SDS011;47005;52.292;13.452;2023-11-21T06:55:29;10.87;;;5.30;;
21611;SDS011;47005;52.292;13.452;2023-11-21T06:57:56;9.30;;;6.27;;
21611;SDS011;47005;52.292;13.452;2023-11-21T07:00:23;12.87;;;6.27;;
21611;SDS011;47005;52.292;13.452;2023-11-21T07:02:48;8.93;;;5.40;;
21611;SDS011;47005;52.292;13.452;2023-11-21T07:05:14;9.07;;;5.70;;
21611;SDS011;47005;52.292;13.452;2023-11-21T07:07:40;6.70;;;4.13;;
21611;SDS011;47005;52.292;13.452;2023-11-21T07:10:06;7.30;;;4.87;;
21611;SDS011;47005;52.292;13.452;2023-11-21T07:12:33;9.27;;;5.60;;
21611;SDS011;47005;52.292;13.452;2023-11-21T07:14:59;10.03;;;5.10;;
21611;SDS011;47005;52.292;13.452;2023-11-21T07:17:25;8.03;;;4.90;;
21611;SDS011;47005;52.292;13.452;2023-11-21T07:19:50;10.60;;;5.03;;
21611;SDS011;47005;52.292;13.452;2023-11-21T07:22:16;8.57;;;4.93;;
21611;SDS011;47005;52.292;13.452;2023-11-21T07:24:49;7.27;;;4.87;;
21611;SDS011;47005;52.292;13.452;2023-11-21T07:27:18;7.33;;;4.93;;
21611;SDS011;47005;52.292;13.452;2023-11-21T07:29:44;9.43;;;5.30;;
21611;SDS011;47005;52.292;13.452;2023-11-21T07:32:10;8.40;;;5.47;;
21611;SDS011;47005;52.292;13.452;2023-11-21T07:34:36;8.17;;;4.87;;
21611;SDS011;47005;52.292;13.452;2023-11-21T07:37:02;7.37;;;5.30;;
21611;SDS011;47005;52.292;13.452;2023-11-21T07:39:28;6.27;;;4.77;;
21611;SDS011;47005;52.292;13.452;2023-11-21T07:41:55;6.50;;;4.80;;
21611;SDS011;47005;52.292;13.452;2023-11-21T07:44:21;8.47;;;4.47;;
21611;SDS011;47005;52.292;13.452;2023-11-21T07:46:47;7.27;;;4.70;;
21611;SDS011;47005;52.292;13.452;2023-11-21T07:49:14;6.13;;;4.37;;
21611;SDS011;47005;52.292;13.452;2023-11-21T07:51:42;6.80;;;4.37;;
21611;SDS011;47005;52.292;13.452;2023-11-21T07:54:08;8.73;;;4.57;;
21611;SDS011;47005;52.292;13.452;2023-11-21T07:56:35;8.33;;;4.60;;
21611;SDS011;47005;52.292;13.452;2023-11-21T07:59:01;10.03;;;5.30;;
21611;SDS011;47005;52.292;13.452;2023-11-21T08:01:26;7.63;;;4.93;;
21611;SDS011;47005;52.292;13.452;2023-11-21T08:03:53;9.40;;;4.33;;
21611;SDS011;47005;52.292;13.452;2023-11-21T08:06:21;7.40;;;4.33;;
21611;SDS011;47005;52.292;13.452;2023-11-21T08:08:49;9.70;;;4.87;;
21611;SDS011;47005;52.292;13.452;2023-11-21T08:11:14;6.37;;;3.30;;
21611;SDS011;47005;52.292;13.452;2023-11-21T08:13:40;7.80;;;4.83;;
21611;SDS011;47005;52.292;13.452;2023-11-21T08:16:06;6.83;;;4.20;;
21611;SDS011;47005;52.292;13.452;2023-11-21T08:18:32;10.80;;;4.23;;
21611;SDS011;47005;52.292;13.452;2023-11-21T08:20:59;8.93;;;4.83;;
21611;SDS011;47005;52.292;13.452;2023-11-21T08:23:25;8.07;;;4.40;;
21611;SDS011;47005;52.292;13.452;2023-11-21T08:25:54;9.90;;;5.30;;
21611;SDS011;47005;52.292;13.452;2023-11-21T08:28:20;14.03;;;5.80;;
21611;SDS011;47005;52.292;13.452;2023-11-21T08:30:50;13.63;;;5.70;;
21611;SDS011;47005;52.292;13.452;2023-11-21T08:33:16;11.03;;;5.37;;
21611;SDS011;47005;52.292;13.452;2023-11-21T08:35:42;13.97;;;5.57;;
21611;SDS011;47005;52.292;13.452;2023-11-21T08:38:08;15.23;;;6.20;;
21611;SDS011;47005;52.292;13.452;2023-11-21T08:40:35;10.43;;;6.00;;
21611;SDS011;47005;52.292;13.452;2023-11-21T08:43:00;11.17;;;5.57;;
21611;SDS011;47005;52.292;13.452;2023-11-21T08:45:29;10.67;;;5.83;;
21611;SDS011;47005;52.292;13.452;2023-11-21T08:47:56;12.87;;;5.33;;
21611;SDS011;47005;52.292;13.452;2023-11-21T08:50:21;18.57;;;5.80;;
21611;SDS011;47005;52.292;13.452;2023-11-21T08:52:47;14.00;;;6.30;;
21611;SDS011;47005;52.292;13.452;2023-11-21T08:55:13;10.40;;;6.00;;
21611;SDS011;47005;52.292;13.452;2023-11-21T08:57:39;13.87;;;7.10;;
21611;SDS011;47005;52.292;13.452;2023-11-21T09:00:06;18.17;;;7.13;;
21611;SDS011;47005;52.292;13.452;2023-11-21T09:02:36;15.63;;;6.63;;
21611;SDS011;47005;52.292;13.452;2023-11-21T09:05:07;14.47;;;6.87;;
21611;SDS011;47005;52.292;13.452;2023-11-21T09:07:36;15.07;;;6.10;;
21611;SDS011;47005;52.292;13.452;2023-11-21T09:10:03;15.37;;;6.47;;
21611;SDS011;47005;52.292;13.452;2023-11-21T09:12:30;12.80;;;6.33;;
21611;SDS011;47005;52.292;13.452;2023-11-21T09:14:57;13.23;;;5.13;;
21611;SDS011;47005;52.292;13.452;2023-11-21T09:17:23;13.67;;;6.17;;
21611;SDS011;47005;52.292;13.452;2023-11-21T09:19:49;11.23;;;5.77;;
21611;SDS011;47005;52.292;13.452;2023-11-21T09:22:16;10.40;;;5.87;;
21611;SDS011;47005;52.292;13.452;2023-11-21T09:24:42;13.67;;;5.80;;
21611;SDS011;47005;52.292;13.452;2023-11-21T09:27:08;11.60;;;5.40;;
21611;SDS011;47005;52.292;13.452;2023-11-21T09:29:34;12.53;;;5.43;;
21611;SDS011;47005;52.292;13.452;2023-11-21T09:32:04;8.50;;;4.40;;
21611;SDS011;47005;52.292;13.452;2023-11-21T09:34:33;7.27;;;3.77;;
21611;SDS011;47005;52.292;13.452;2023-11-21T09:37:03;8.63;;;4.10;;
21611;SDS011;47005;52.292;13.452;2023-11-21T09:39:34;7.57;;;3.27;;
21611;SDS011;47005;52.292;13.452;2023-11-21T09:42:17;8.47;;;4.30;;
21611;SDS011;47005;52.292;13.452;2023-11-21T09:44:53;5.30;;;3.10;;
21611;SDS011;47005;52.292;13.452;2023-11-21T09:47:26;5.87;;;3.67;;
21611;SDS011;47005;52.292;13.452;2023-11-21T09:49:53;5.30;;;3.00;;
21611;SDS011;47005;52.292;13.452;2023-11-21T09:52:25;6.47;;;3.30;;
21611;SDS011;47005;52.292;13.452;2023-11-21T09:54:55;8.87;;;3.20;;
21611;SDS011;47005;52.292;13.452;2023-11-21T09:57:25;5.53;;;2.77;;
21611;SDS011;47005;52.292;13.452;2023-11-21T09:59:53;7.07;;;3.20;;
21611;SDS011;47005;52.292;13.452;2023-11-21T10:02:24;7.43;;;3.17;;
21611;SDS011;47005;52.292;13.452;2023-11-21T10:04:54;6.57;;;3.10;;
21611;SDS011;47005;52.292;13.452;2023-11-21T10:07:21;7.67;;;3.20;;
21611;SDS011;47005;52.292;13.452;2023-11-21T10:09:47;4.60;;;3.13;;
21611;SDS011;47005;52.292;13.452;2023-11-21T10:12:14;4.50;;;2.27;;
21611;SDS011;47005;52.292;13.452;2023-11-21T10:14:41;5.77;;;2.60;;
21611;SDS011;47005;52.292;13.452;2023-11-21T10:17:10;3.33;;;1.97;;
21611;SDS011;47005;52.292;13.452;2023-11-21T10:19:37;4.47;;;2.60;;
21611;SDS011;47005;52.292;13.452;2023-11-21T10:22:04;7.97;;;2.60;;
21611;SDS011;47005;52.292;13.452;2023-11-21T10:24:32;6.80;;;2.80;;
21611;SDS011;47005;52.292;13.452;2023-11-21T10:26:58;8.90;;;2.53;;
21611;SDS011;47005;52.292;13.452;2023-11-21T10:29:24;5.87;;;2.50;;
21611;SDS011;47005;52.292;13.452;2023-11-21T10:31:51;4.00;;;2.13;;
21611;SDS011;47005;52.292;13.452;2023-11-21T10:34:22;5.07;;;2.80;;
21611;SDS011;47005;52.292;13.452;2023-11-21T10:36:48;3.93;;;2.10;;
21611;SDS011;47005;52.292;13.452;2023-11-21T10:39:14;4.20;;;2.03;;
21611;SDS011;47005;52.292;13.452;2023-11-21T10:41:44;5.20;;;2.27;;
21611;SDS011;47005;52.292;13.452;2023-11-21T10:44:13;4.17;;;1.90;;
21611;SDS011;47005;52.292;13.452;2023-11-21T10:46:45;7.80;;;2.70;;
21611;SDS011;47005;52.292;13.452;2023-11-21T10:49:15;4.37;;;2.10;;
21611;SDS011;47005;52.292;13.452;2023-11-21T10:51:45;6.13;;;2.30;;
21611;SDS011;47005;52.292;13.452;2023-11-21T10:54:10;2.73;;;1.40;;
21611;SDS011;47005;52.292;13.452;2023-11-21T10:56:38;3.40;;;1.77;;
21611;SDS011;47005;52.292;13.452;2023-11-21T10:59:08;3.63;;;1.40;;
21611;SDS011;47005;52.292;13.452;2023-11-21T11:01:40;3.00;;;1.53;;
21611;SDS011;47005;52.292;13.452;2023-11-21T11:04:09;3.70;;;1.90;;
21611;SDS011;47005;52.292;13.452;2023-11-21T11:06:42;3.20;;;1.50;;
21611;SDS011;47005;52.292;13.452;2023-11-21T11:09:09;2.97;;;1.80;;
21611;SDS011;47005;52.292;13.452;2023-11-21T11:11:38;2.20;;;1.43;;
21611;SDS011;47005;52.292;13.452;2023-11-21T11:14:12;3.07;;;1.47;;
21611;SDS011;47005;52.292;13.452;2023-11-21T11:16:39;2.67;;;1.40;;
21611;SDS011;47005;52.292;13.452;2023-11-21T11:19:06;2.50;;;1.57;;
21611;SDS011;47005;52.292;13.452;2023-11-21T11:32:50;1.77;;;1.20;;
21611;SDS011;47005;52.292;13.452;2023-11-21T11:38:15;2.90;;;1.60;;
21611;SDS011;47005;52.292;13.452;2023-11-21T11:40:45;4.83;;;1.80;;
21611;SDS011;47005;52.292;13.452;2023-11-21T11:43:11;2.43;;;1.67;;
21611;SDS011;47005;52.292;13.452;2023-11-21T11:45:37;2.47;;;1.60;;
21611;SDS011;47005;52.292;13.452;2023-11-21T11:48:07;2.77;;;1.67;;
21611;SDS011;47005;52.292;13.452;2023-11-21T11:50:33;3.43;;;2.17;;
21611;SDS011;47005;52.292;13.452;2023-11-21T11:53:32;2.33;;;1.60;;
21611;SDS011;47005;52.292;13.452;2023-11-21T11:56:37;6.90;;;2.20;;
21611;SDS011;47005;52.292;13.452;2023-11-21T11:58:53;2.70;;;1.80;;
21611;SDS011;47005;52.292;13.452;2023-11-21T12:01:20;2.80;;;2.07;;
21611;SDS011;47005;52.292;13.452;2023-11-21T12:06:50;2.90;;;2.10;;
21611;SDS011;47005;52.292;13.452;2023-11-21T12:09:21;2.70;;;1.77;;
21611;SDS011;47005;52.292;13.452;2023-11-21T12:11:50;4.10;;;2.70;;
21611;SDS011;47005;52.292;13.452;2023-11-21T12:14:17;4.10;;;2.33;;
21611;SDS011;47005;52.292;13.452;2023-11-21T12:16:43;4.07;;;2.40;;
21611;SDS011;47005;52.292;13.452;2023-11-21T12:19:09;7.43;;;2.87;;
21611;SDS011;47005;52.292;13.452;2023-11-21T12:21:36;2.77;;;2.13;;
21611;SDS011;47005;52.292;13.452;2023-11-21T12:24:02;4.00;;;2.20;;
21611;SDS011;47005;52.292;13.452;2023-11-21T12:26:28;3.53;;;2.47;;
21611;SDS011;47005;52.292;13.452;2023-11-21T12:28:54;3.37;;;1.73;;
21611;SDS011;47005;52.292;13.452;2023-11-21T12:31:21;4.20;;;2.60;;
21611;SDS011;47005;52.292;13.452;2023-11-21T12:33:47;4.33;;;2.60;;
21611;SDS011;47005;52.292;13.452;2023-11-21T12:36:12;3.40;;;2.10;;
21611;SDS011;47005;52.292;13.452;2023-11-21T12:38:38;12.27;;;6.00;;
21611;SDS011;47005;52.292;13.452;2023-11-21T12:41:04;3.93;;;2.50;;
21611;SDS011;47005;52.292;13.452;2023-11-21T12:43:31;3.73;;;2.40;;
21611;SDS011;47005;52.292;13.452;2023-11-21T12:46:07;5.97;;;2.87;;
21611;SDS011;47005;52.292;13.452;2023-11-21T12:48:39;5.53;;;2.80;;
21611;SDS011;47005;52.292;13.452;2023-11-21T12:51:10;6.00;;;2.73;;
21611;SDS011;47005;52.292;13.452;2023-11-21T12:53:37;3.47;;;2.50;;
21611;SDS011;47005;52.292;13.452;2023-11-21T12:56:12;5.30;;;2.53;;
21611;SDS011;47005;52.292;13.452;2023-11-21T12:58:43;2.73;;;2.00;;
21611;SDS011;47005;52.292;13.452;2023-11-21T13:01:12;3.63;;;2.47;;
21611;SDS011;47005;52.292;13.452;2023-11-21T13:03:42;2.77;;;1.63;;
21611;SDS011;47005;52.292;13.452;2023-11-21T13:06:10;5.27;;;2.70;;
21611;SDS011;47005;52.292;13.452;2023-11-21T13:08:37;2.60;;;1.83;;
21611;SDS011;47005;52.292;13.452;2023-11-21T13:11:04;3.63;;;2.30;;
21611;SDS011;47005;52.292;13.452;2023-11-21T13:13:31;4.50;;;3.00;;
21611;SDS011;47005;52.292;13.452;2023-11-21T13:15:59;5.10;;;2.20;;
21611;SDS011;47005;52.292;13.452;2023-11-21T13:18:26;6.37;;;2.57;;
21611;SDS011;47005;52.292;13.452;2023-11-21T13:20:56;2.83;;;2.17;;
21611;SDS011;47005;52.292;13.452;2023-11-21T13:23:42;4.13;;;2.30;;
21611;SDS011;47005;52.292;13.452;2023-11-21T13:26:08;4.63;;;2.33;;
21611;SDS011;47005;52.292;13.452;2023-11-21T13:28:34;4.03;;;2.60;;
21611;SDS011;47005;52.292;13.452;2023-11-21T13:31:02;3.83;;;2.33;;
21611;SDS011;47005;52.292;13.452;2023-11-21T13:33:35;6.03;;;1.93;;
21611;SDS011;47005;52.292;13.452;2023-11-21T13:36:03;3.13;;;2.03;;
21611;SDS011;47005;52.292;13.452;2023-11-21T13:38:32;5.63;;;2.80;;
21611;SDS011;47005;52.292;13.452;2023-11-21T13:41:00;4.27;;;2.20;;
21611;SDS011;47005;52.292;13.452;2023-11-21T13:43:26;3.77;;;2.63;;
21611;SDS011;47005;52.292;13.452;2023-11-21T13:45:53;4.93;;;2.53;;
21611;SDS011;47005;52.292;13.452;2023-11-21T13:48:29;4.57;;;2.47;;
21611;SDS011;47005;52.292;13.452;2023-11-21T13:51:05;5.77;;;2.70;;
21611;SDS011;47005;52.292;13.452;2023-11-21T13:53:45;5.47;;;4.30;;
21611;SDS011;47005;52.292;13.452;2023-11-21T13:56:18;4.07;;;2.47;;
21611;SDS011;47005;52.292;13.452;2023-11-21T13:58:51;5.47;;;3.47;;
21611;SDS011;47005;52.292;13.452;2023-11-21T14:01:17;4.67;;;2.93;;
21611;SDS011;47005;52.292;13.452;2023-11-21T14:03:55;5.43;;;3.40;;
21611;SDS011;47005;52.292;13.452;2023-11-21T14:06:27;4.40;;;2.50;;
21611;SDS011;47005;52.292;13.452;2023-11-21T14:08:59;2.93;;;2.13;;
21611;SDS011;47005;52.292;13.452;2023-11-21T14:11:31;5.57;;;3.07;;
21611;SDS011;47005;52.292;13.452;2023-11-21T14:13:59;3.80;;;2.57;;
21611;SDS011;47005;52.292;13.452;2023-11-21T14:16:25;4.87;;;2.37;;
21611;SDS011;47005;52.292;13.452;2023-11-21T14:18:51;6.20;;;3.07;;
21611;SDS011;47005;52.292;13.452;2023-11-21T14:21:22;5.00;;;3.00;;
21611;SDS011;47005;52.292;13.452;2023-11-21T14:23:48;4.70;;;3.20;;
21611;SDS011;47005;52.292;13.452;2023-11-21T14:26:14;4.73;;;2.73;;
21611;SDS011;47005;52.292;13.452;2023-11-21T14:28:41;3.20;;;2.20;;
21611;SDS011;47005;52.292;13.452;2023-11-21T14:31:07;5.30;;;2.90;;
21611;SDS011;47005;52.292;13.452;2023-11-21T14:33:38;4.13;;;2.93;;
21611;SDS011;47005;52.292;13.452;2023-11-21T14:36:04;5.00;;;3.80;;
21611;SDS011;47005;52.292;13.452;2023-11-21T14:38:33;5.00;;;2.70;;
21611;SDS011;47005;52.292;13.452;2023-11-21T14:40:58;5.07;;;3.60;;
21611;SDS011;47005;52.292;13.452;2023-11-21T14:43:24;3.63;;;2.80;;
21611;SDS011;47005;52.292;13.452;2023-11-21T14:45:50;6.30;;;3.93;;